Time;durP1;ratioP1;P1;durP2;ratioP2;P2;SDS_P1;SDS_P2;PMS_P1;PMS_P2;Temp;Humidity;BMP_temperature;BMP_pressure;BME280_temperature;BME280_humidity;BME280_pressure;Samples;Min_cycle;Max_cycle;Signal;HPM_P1;HPM_P2
2021/11/29 00:01:01;;;;;;;55.63;52.08;;;;;;;9.67;100.00;99073.50;5053691;28;20057;-79
2021/11/29 00:03:30;;;;;;;53.80;50.30;;;;;;;9.77;100.00;99073.69;5053853;28;20049;-78
2021/11/29 00:05:57;;;;;;;51.60;47.55;;;;;;;9.59;100.00;99064.09;5053956;28;20056;-79
2021/11/29 00:08:23;;;;;;;57.50;53.50;;;;;;;9.62;100.00;99076.06;5054143;28;20045;-78
2021/11/29 00:10:50;;;;;;;60.95;57.15;;;;;;;9.52;100.00;99075.88;5054238;28;20057;-78
2021/11/29 00:13:17;;;;;;;52.38;48.80;;;;;;;9.70;100.00;99069.56;5053605;28;20045;-78
2021/11/29 00:15:44;;;;;;;54.88;51.08;;;;;;;9.74;100.00;99071.50;5053681;28;20472;-77
2021/11/29 00:18:13;;;;;;;58.30;53.72;;;;;;;9.48;100.00;99058.88;5053563;28;20543;-79
2021/11/29 00:20:42;;;;;;;51.78;47.97;;;;;;;9.67;100.00;99054.13;5053928;28;20053;-79
2021/11/29 00:23:09;;;;;;;54.08;49.83;;;;;;;9.67;100.00;99070.03;5054030;28;20059;-79
2021/11/29 00:25:36;;;;;;;55.42;51.13;;;;;;;9.57;100.00;99065.38;5053668;28;20057;-80
2021/11/29 00:28:02;;;;;;;62.83;57.83;;;;;;;9.44;100.00;99063.84;5053789;28;20383;-79
2021/11/29 00:30:29;;;;;;;61.15;55.92;;;;;;;9.50;100.00;99059.41;5053801;28;20535;-80
2021/11/29 00:32:56;;;;;;;63.90;59.03;;;;;;;9.46;100.00;99043.19;5054100;28;20045;-78
2021/11/29 00:35:24;;;;;;;93.30;70.95;;;;;;;9.71;100.00;99031.41;5053691;28;20057;-79
2021/11/29 00:37:51;;;;;;;70.38;61.00;;;;;;;9.72;100.00;99030.38;5053812;28;20108;-78
2021/11/29 00:40:18;;;;;;;86.82;63.50;;;;;;;9.73;100.00;99029.31;5054144;28;20324;-78
2021/11/29 00:42:45;;;;;;;87.55;69.65;;;;;;;9.94;100.00;99011.88;5053436;28;20114;-78
2021/11/29 00:45:12;;;;;;;74.03;60.88;;;;;;;10.15;100.00;99005.00;5054527;28;20071;-77
2021/11/29 00:47:39;;;;;;;83.13;63.08;;;;;;;10.28;100.00;99000.16;5053634;28;20060;-79
2021/11/29 00:50:08;;;;;;;86.55;67.07;;;;;;;10.20;100.00;99000.59;5053398;28;20103;-78
2021/11/29 00:52:37;;;;;;;59.25;53.38;;;;;;;9.86;100.00;98999.81;5054063;28;20049;-78
2021/11/29 00:55:05;;;;;;;59.00;52.70;;;;;;;9.84;100.00;99001.94;5053416;28;20571;-79
2021/11/29 00:57:32;;;;;;;61.63;56.13;;;;;;;9.98;100.00;99007.69;5053115;28;20057;-78
2021/11/29 00:59:59;;;;;;;60.50;55.55;;;;;;;10.01;100.00;99010.66;5055316;28;20395;-79
2021/11/29 01:02:26;;;;;;;57.83;52.72;;;;;;;10.01;100.00;99002.69;5056720;28;20486;-78
2021/11/29 01:04:53;;;;;;;62.90;57.65;;;;;;;10.20;100.00;98999.78;5057386;28;20048;-79
2021/11/29 01:07:19;;;;;;;58.08;53.00;;;;;;;10.21;100.00;98993.41;5057537;28;20052;-81
2021/11/29 01:09:47;;;;;;;60.90;55.22;;;;;;;10.36;100.00;98988.34;5057220;28;20099;-78
2021/11/29 01:12:14;;;;;;;64.90;58.90;;;;;;;10.19;100.00;98987.53;5056837;28;20478;-77
2021/11/29 01:14:41;;;;;;;61.47;56.38;;;;;;;10.05;100.00;98987.13;5057064;28;20048;-79
2021/11/29 01:17:10;;;;;;;61.83;55.63;;;;;;;10.02;100.00;98977.78;5057505;28;20110;-79
2021/11/29 01:19:37;;;;;;;54.97;50.70;;;;;;;9.96;100.00;98978.75;5057316;28;20060;-79
2021/11/29 01:22:05;;;;;;;58.38;53.25;;;;;;;9.99;100.00;98977.47;5057501;28;20049;-78
2021/11/29 01:24:32;;;;;;;53.13;48.60;;;;;;;10.22;100.00;98976.44;5057042;28;20114;-79
2021/11/29 01:27:00;;;;;;;51.50;47.50;;;;;;;10.31;100.00;98957.22;5057276;28;20056;-79
2021/11/29 01:29:28;;;;;;;57.00;52.30;;;;;;;10.23;100.00;98948.88;5056502;28;20122;-79
2021/11/29 01:31:54;;;;;;;69.82;64.10;;;;;;;10.46;100.00;98961.91;5056416;28;20056;-77
2021/11/29 01:34:21;;;;;;;66.50;61.53;;;;;;;10.08;100.00;98960.91;5056851;28;20460;-80
2021/11/29 01:36:48;;;;;;;57.80;53.03;;;;;;;9.96;100.00;98951.44;5056553;28;20053;-77
2021/11/29 01:39:15;;;;;;;54.25;49.75;;;;;;;9.94;100.00;98950.88;5056354;28;20563;-78
2021/11/29 01:41:43;;;;;;;50.85;46.72;;;;;;;9.90;100.00;98934.66;5056458;28;20053;-82
2021/11/29 01:44:11;;;;;;;52.28;48.17;;;;;;;10.04;100.00;98924.47;5056420;28;20045;-79
2021/11/29 01:46:38;;;;;;;54.33;49.95;;;;;;;10.22;100.00;98913.56;5056541;28;20044;-79
2021/11/29 01:49:05;;;;;;;51.45;47.15;;;;;;;10.29;100.00;98913.44;5056117;28;20049;-79
2021/11/29 01:51:32;;;;;;;51.40;47.22;;;;;;;10.11;100.00;98898.59;5056208;28;20479;-77
2021/11/29 01:53:59;;;;;;;56.85;52.35;;;;;;;10.16;100.00;98895.97;5056714;28;20113;-77
2021/11/29 01:56:27;;;;;;;776.55;417.45;;;;;;;10.17;100.00;98880.88;5056031;28;20052;-77
2021/11/29 01:58:54;;;;;;;100.40;72.13;;;;;;;9.96;100.00;98872.69;5056079;28;20448;-80
2021/11/29 02:01:24;;;;;;;93.35;67.95;;;;;;;10.05;100.00;98881.81;5055742;28;20493;-78
2021/11/29 02:03:56;;;;;;;74.18;66.15;;;;;;;10.04;100.00;98874.88;5056357;28;20118;-78
2021/11/29 02:06:23;;;;;;;53.60;48.88;;;;;;;10.26;100.00;98864.31;5056167;28;20045;-79
2021/11/29 02:08:50;;;;;;;52.40;48.30;;;;;;;10.21;100.00;98855.47;5056242;28;20491;-77
2021/11/29 02:11:18;;;;;;;53.80;49.50;;;;;;;10.12;100.00;98862.25;5055559;28;20118;-78
2021/11/29 02:13:44;;;;;;;56.30;52.13;;;;;;;10.07;100.00;98861.13;5056442;28;20041;-79
2021/11/29 02:16:11;;;;;;;52.03;47.88;;;;;;;9.95;100.00;98868.41;5055596;28;20094;-77
2021/11/29 02:18:40;;;;;;;52.88;49.25;;;;;;;9.94;100.00;98864.16;5056115;28;20112;-79
2021/11/29 02:21:11;;;;;;;51.05;47.10;;;;;;;10.02;100.00;98854.97;5056120;28;20045;-79
2021/11/29 02:23:40;;;;;;;52.33;48.67;;;;;;;10.02;100.00;98850.47;5055641;28;20539;-77
2021/11/29 02:26:08;;;;;;;61.28;54.95;;;;;;;10.29;100.00;98847.91;5055778;28;20053;-80
2021/11/29 02:28:36;;;;;;;58.33;53.80;;;;;;;10.25;100.00;98828.16;5056393;28;20440;-78
2021/11/29 02:31:07;;;;;;;56.08;51.78;;;;;;;10.21;100.00;98818.31;5056049;28;20053;-78
2021/11/29 02:33:34;;;;;;;57.33;52.83;;;;;;;10.37;100.00;98819.28;5055630;28;20048;-77
2021/11/29 02:36:01;;;;;;;63.45;57.95;;;;;;;10.68;100.00;98818.53;5055321;28;20107;-79
2021/11/29 02:38:29;;;;;;;80.75;73.18;;;;;;;11.23;100.00;98816.56;5055850;28;20049;-80
2021/11/29 02:40:56;;;;;;;83.47;76.53;;;;;;;11.55;100.00;98815.66;5055499;28;20048;-77
2021/11/29 02:43:23;;;;;;;92.72;85.15;;;;;;;12.62;100.00;98818.69;5055170;28;20045;-79
2021/11/29 02:45:50;;;;;;;91.85;85.20;;;;;;;12.93;100.00;98816.03;5055916;28;20126;-78
2021/11/29 02:48:17;;;;;;;85.82;79.43;;;;;;;13.61;100.00;98808.47;5055685;28;20452;-79
2021/11/29 02:50:43;;;;;;;78.82;72.38;;;;;;;13.61;100.00;98808.47;5055627;28;20386;-78
2021/11/29 02:53:14;;;;;;;87.78;79.90;;;;;;;13.48;100.00;98796.50;5055348;28;20056;-77
2021/11/29 02:55:42;;;;;;;102.97;87.57;;;;;;;13.47;100.00;98783.47;5055231;28;20474;-77
2021/11/29 02:58:09;;;;;;;77.35;71.20;;;;;;;14.22;100.00;98788.72;5055659;28;20057;-78
2021/11/29 03:00:35;;;;;;;77.15;71.03;;;;;;;14.00;100.00;98789.09;5172437;22;20036;-79
2021/11/29 03:03:07;;;;;;;75.63;69.47;;;;;;;14.13;100.00;98788.50;5035114;28;20115;-79
2021/11/29 03:05:35;;;;;;;74.22;68.32;;;;;;;14.48;100.00;98785.88;5036069;28;20049;-77
2021/11/29 03:08:03;;;;;;;69.70;63.85;;;;;;;14.63;100.00;98785.78;5035613;28;20053;-80
2021/11/29 03:10:30;;;;;;;74.53;68.97;;;;;;;14.86;100.00;98776.25;5035020;28;20057;-79
2021/11/29 03:12:58;;;;;;;72.45;66.95;;;;;;;14.85;100.00;98790.69;5036121;28;20075;-77
2021/11/29 03:15:26;;;;;;;75.68;69.72;;;;;;;14.72;100.00;98781.44;5035725;28;20111;-80
2021/11/29 03:17:52;;;;;;;79.38;72.18;;;;;;;14.49;100.00;98777.56;5035738;28;20087;-78
2021/11/29 03:20:19;;;;;;;79.97;73.10;;;;;;;14.49;100.00;98771.44;5035668;28;20471;-79
2021/11/29 03:22:46;;;;;;;92.53;84.90;;;;;;;14.42;100.00;98785.91;5035084;28;20104;-77
2021/11/29 03:25:13;;;;;;;95.22;87.50;;;;;;;14.13;100.00;98790.34;5035665;28;20049;-80
2021/11/29 03:27:41;;;;;;;85.63;78.07;;;;;;;14.35;100.00;98798.78;5035967;28;20064;-78
2021/11/29 03:30:11;;;;;;;97.82;89.35;;;;;;;14.37;100.00;98804.66;5034370;28;20045;-78
2021/11/29 03:32:38;;;;;;;88.43;80.35;;;;;;;14.42;100.00;98809.13;5035407;28;20049;-79
2021/11/29 03:35:08;;;;;;;87.20;80.18;;;;;;;14.47;100.00;98803.78;5035364;28;20042;-79
2021/11/29 03:37:36;;;;;;;93.75;85.65;;;;;;;14.33;100.00;98800.13;5035945;28;20080;-78
2021/11/29 03:40:05;;;;;;;94.40;86.93;;;;;;;13.64;100.00;98801.78;5034531;28;20494;-79
2021/11/29 03:42:32;;;;;;;76.30;70.85;;;;;;;12.29;100.00;98810.13;5034872;28;20092;-77
2021/11/29 03:45:00;;;;;;;52.40;48.70;;;;;;;11.04;100.00;98791.44;5034481;28;20050;-78
2021/11/29 03:47:28;;;;;;;57.92;53.88;;;;;;;11.46;100.00;98792.22;5034930;28;20057;-79
2021/11/29 03:49:55;;;;;;;54.08;50.67;;;;;;;10.97;100.00;98789.00;5034067;28;20057;-77
2021/11/29 03:52:22;;;;;;;83.78;77.85;;;;;;;11.13;100.00;98787.25;5034504;28;20569;-77
2021/11/29 03:54:50;;;;;;;70.80;65.93;;;;;;;11.39;100.00;98767.75;5034827;28;20118;-78
2021/11/29 03:57:17;;;;;;;78.00;72.80;;;;;;;10.98;100.00;98767.53;5034619;28;20103;-78
2021/11/29 03:59:44;;;;;;;66.13;61.58;;;;;;;11.06;100.00;98749.50;5034727;28;20074;-77
2021/11/29 04:02:11;;;;;;;102.38;94.85;;;;;;;11.24;100.00;98751.72;5033584;28;20111;-77
2021/11/29 04:04:40;;;;;;;118.43;109.78;;;;;;;11.28;100.00;98746.69;5034164;28;20144;-79
2021/11/29 04:07:06;;;;;;;135.95;126.13;;;;;;;10.90;100.00;98749.41;5032403;28;20053;-79
2021/11/29 04:09:33;;;;;;;114.65;105.80;;;;;;;11.08;100.00;98739.41;5034062;28;20187;-79
2021/11/29 04:12:00;;;;;;;127.03;117.03;;;;;;;11.46;100.00;98741.72;5034118;28;20053;-78
2021/11/29 04:14:27;;;;;;;127.07;116.88;;;;;;;11.00;100.00;98724.75;5033476;28;20057;-77
2021/11/29 04:16:53;;;;;;;70.28;65.00;;;;;;;10.73;100.00;98725.63;5033923;28;20478;-78
2021/11/29 04:19:20;;;;;;;109.22;99.85;;;;;;;11.14;100.00;98733.88;5034018;28;20065;-78
2021/11/29 04:21:48;;;;;;;155.68;142.60;;;;;;;11.33;100.00;98739.53;5033439;28;20064;-78
2021/11/29 04:24:16;;;;;;;108.70;99.93;;;;;;;10.26;100.00;98720.22;5033326;28;20131;-78
2021/11/29 04:26:50;;;;;;;81.85;76.43;;;;;;;10.27;100.00;98716.53;5033885;28;20057;-79
2021/11/29 04:29:19;;;;;;;89.60;81.45;;;;;;;11.02;100.00;98717.34;5033836;28;20573;-79
2021/11/29 04:31:47;;;;;;;132.90;122.85;;;;;;;10.58;100.00;98712.25;5034230;28;20049;-80
2021/11/29 04:34:15;;;;;;;125.97;114.90;;;;;;;11.04;100.00;98719.72;5034804;28;20569;-79
2021/11/29 04:36:42;;;;;;;157.10;142.98;;;;;;;11.16;100.00;98721.09;5037245;28;20132;-78
2021/11/29 04:39:11;;;;;;;174.90;160.07;;;;;;;11.14;100.00;98711.81;5038152;28;20053;-79
2021/11/29 04:41:38;;;;;;;194.02;177.07;;;;;;;11.13;100.00;98726.94;5037688;28;20445;-79
2021/11/29 04:44:06;;;;;;;231.35;213.20;;;;;;;10.50;100.00;98726.81;5038196;28;20049;-78
2021/11/29 04:46:33;;;;;;;209.77;193.48;;;;;;;10.43;100.00;98726.19;5037642;28;20053;-77
2021/11/29 04:48:59;;;;;;;103.80;96.10;;;;;;;10.25;100.00;98727.34;5038532;28;20095;-79
2021/11/29 04:51:26;;;;;;;77.60;72.57;;;;;;;10.38;100.00;98717.38;5037995;28;20057;-78
2021/11/29 04:53:53;;;;;;;94.50;88.18;;;;;;;10.76;100.00;98724.31;5038738;28;20116;-78
2021/11/29 04:56:21;;;;;;;105.63;97.22;;;;;;;10.99;100.00;98729.25;5038136;28;20123;-80
2021/11/29 04:58:48;;;;;;;146.70;135.68;;;;;;;10.60;100.00;98739.34;5037324;28;20123;-77
2021/11/29 05:01:15;;;;;;;79.28;73.05;;;;;;;10.30;100.00;98724.78;5037858;28;20057;-79
2021/11/29 05:03:41;;;;;;;99.55;91.97;;;;;;;10.64;100.00;98732.47;5036699;28;20112;-77
2021/11/29 05:06:08;;;;;;;107.32;98.80;;;;;;;10.79;100.00;98707.88;5037582;28;20103;-79
2021/11/29 05:08:35;;;;;;;134.27;122.72;;;;;;;10.96;100.00;98715.69;5037871;28;20124;-79
2021/11/29 05:11:04;;;;;;;162.88;149.10;;;;;;;10.76;100.00;98726.97;5037486;28;20068;-77
2021/11/29 05:13:33;;;;;;;190.32;175.57;;;;;;;10.83;100.00;98716.13;5037444;28;20136;-79
2021/11/29 05:15:59;;;;;;;166.77;153.38;;;;;;;10.80;100.00;98729.91;5036927;28;20053;-80
2021/11/29 05:18:27;;;;;;;129.73;119.47;;;;;;;10.70;100.00;98720.03;5036795;28;20147;-78
2021/11/29 05:20:54;;;;;;;154.68;142.32;;;;;;;10.99;100.00;98715.19;5037019;28;20050;-77
2021/11/29 05:23:20;;;;;;;187.60;172.95;;;;;;;10.87;100.00;98710.06;5036690;28;20061;-79
2021/11/29 05:25:47;;;;;;;228.88;212.35;;;;;;;10.55;100.00;98734.78;5036697;28;20049;-78
2021/11/29 05:28:14;;;;;;;163.88;150.95;;;;;;;11.16;100.00;98749.53;5036468;28;20107;-78
2021/11/29 05:30:43;;;;;;;236.23;218.23;;;;;;;10.46;100.00;98757.53;5036012;28;20061;-78
2021/11/29 05:33:10;;;;;;;160.77;147.30;;;;;;;10.95;100.00;98760.06;5036205;28;20060;-78
2021/11/29 05:35:38;;;;;;;190.35;174.80;;;;;;;10.75;100.00;98781.94;5036914;28;20050;-79
2021/11/29 05:38:05;;;;;;;73.35;66.72;;;;;;;10.49;100.00;98777.47;5036540;28;20053;-79
2021/11/29 05:40:33;;;;;;;59.92;55.60;;;;;;;10.16;100.00;98766.00;5036494;28;20054;-80
2021/11/29 05:42:59;;;;;;;69.88;64.60;;;;;;;10.61;100.00;98794.03;5035993;28;20053;-80
2021/11/29 05:45:26;;;;;;;123.63;114.45;;;;;;;10.40;100.00;98816.94;5034912;28;20453;-77
2021/11/29 05:47:55;;;;;;;97.53;90.45;;;;;;;10.18;100.00;98795.72;5035715;28;20046;-79
2021/11/29 05:50:22;;;;;;;58.47;53.85;;;;;;;10.47;100.00;98798.19;5035687;28;20057;-79
2021/11/29 05:52:49;;;;;;;65.30;59.80;;;;;;;10.34;100.00;98793.25;5035241;28;20053;-80
2021/11/29 05:55:17;;;;;;;76.93;70.75;;;;;;;10.76;100.00;98775.56;5035399;28;20068;-79
2021/11/29 05:57:44;;;;;;;162.82;150.68;;;;;;;10.71;100.00;98788.00;5035411;28;20483;-80
2021/11/29 06:00:15;;;;;;;130.73;120.10;;;;;;;10.67;100.00;98792.22;5035483;28;20061;-79
2021/11/29 06:02:43;;;;;;;110.85;101.55;;;;;;;10.96;100.00;98798.03;5034768;28;20062;-79
2021/11/29 06:05:12;;;;;;;149.85;137.82;;;;;;;11.29;100.00;98810.22;5035179;28;20073;-78
2021/11/29 06:07:39;;;;;;;202.25;185.98;;;;;;;11.08;100.00;98817.25;5035123;28;20119;-80
2021/11/29 06:10:07;;;;;;;137.05;126.35;;;;;;;10.75;100.00;98802.41;5035669;28;20053;-78
2021/11/29 06:12:34;;;;;;;127.90;117.60;;;;;;;11.14;100.00;98796.84;5035163;28;20118;-80
2021/11/29 06:15:01;;;;;;;156.73;144.45;;;;;;;10.96;100.00;98790.06;5034864;28;20045;-80
2021/11/29 06:17:28;;;;;;;169.00;155.02;;;;;;;11.13;100.00;98784.59;5035295;28;20053;-78
2021/11/29 06:19:55;;;;;;;148.20;136.40;;;;;;;11.31;100.00;98772.75;5035607;28;20049;-79
2021/11/29 06:22:23;;;;;;;179.60;164.30;;;;;;;11.40;100.00;98779.16;5035521;28;20083;-78
2021/11/29 06:24:50;;;;;;;204.05;187.95;;;;;;;11.02;100.00;98789.06;5035392;28;20057;-79
2021/11/29 06:27:16;;;;;;;164.90;151.25;;;;;;;11.10;100.00;98801.84;5035461;28;20472;-80
2021/11/29 06:29:44;;;;;;;163.20;149.82;;;;;;;11.24;100.00;98810.97;5035248;28;20524;-78
2021/11/29 06:32:11;;;;;;;166.95;153.73;;;;;;;10.72;100.00;98816.19;5035319;28;20471;-78
2021/11/29 06:34:38;;;;;;;127.20;116.78;;;;;;;11.10;100.00;98825.75;5035038;28;20053;-80
2021/11/29 06:37:05;;;;;;;165.73;151.82;;;;;;;11.21;100.00;98835.41;5035268;28;20045;-78
2021/11/29 06:39:33;;;;;;;175.35;161.85;;;;;;;10.95;100.00;98855.69;5035163;28;20107;-80
2021/11/29 06:42:01;;;;;;;132.32;122.00;;;;;;;11.33;100.00;98863.66;5034829;28;20115;-78
2021/11/29 06:44:27;;;;;;;189.50;174.05;;;;;;;11.12;100.00;98883.97;5035164;28;20061;-78
2021/11/29 06:46:55;;;;;;;153.13;139.23;;;;;;;10.93;100.00;98896.81;5034818;28;20053;-79
2021/11/29 06:49:22;;;;;;;164.95;150.77;;;;;;;10.59;100.00;98888.25;5035006;28;20064;-79
2021/11/29 06:51:49;;;;;;;120.50;109.95;;;;;;;10.72;100.00;98878.03;5034914;28;20065;-79
2021/11/29 06:54:17;;;;;;;127.78;116.25;;;;;;;10.67;100.00;98888.59;5034701;28;20508;-80
2021/11/29 06:56:45;;;;;;;130.55;118.82;;;;;;;10.93;100.00;98894.97;5034041;28;20370;-80
2021/11/29 06:59:12;;;;;;;167.63;152.13;;;;;;;10.56;100.00;98900.19;5034899;28;20053;-78
2021/11/29 07:01:39;;;;;;;85.72;77.68;;;;;;;10.31;100.00;98893.53;5034331;28;20053;-79
2021/11/29 07:07:27;;;;;;;89.18;81.07;;;;;;;10.18;100.00;98901.06;5034459;28;20087;-78
2021/11/29 07:09:54;;;;;;;95.85;85.45;;;;;;;10.23;100.00;98898.47;5034694;28;20057;-82
2021/11/29 07:12:22;;;;;;;80.10;73.03;;;;;;;10.21;100.00;98866.88;5034341;28;20111;-78
2021/11/29 07:14:49;;;;;;;76.75;70.07;;;;;;;10.05;100.00;98857.13;5034581;28;20057;-78
2021/11/29 07:17:16;;;;;;;101.47;91.57;;;;;;;10.33;100.00;98861.47;5034294;28;20498;-78
2021/11/29 07:19:42;;;;;;;144.00;130.75;;;;;;;10.36;100.00;98868.91;5034206;28;20539;-78
2021/11/29 07:22:09;;;;;;;84.35;76.20;;;;;;;10.45;100.00;98856.81;5034451;28;20053;-78
2021/11/29 07:24:36;;;;;;;101.60;91.47;;;;;;;10.21;100.00;98855.47;5034440;28;20111;-79
2021/11/29 07:27:03;;;;;;;91.93;83.47;;;;;;;10.17;100.00;98830.47;5034264;28;20115;-79
2021/11/29 07:29:31;;;;;;;120.30;107.88;;;;;;;10.36;100.00;98849.56;5033986;28;20478;-79
2021/11/29 07:31:58;;;;;;;153.45;138.80;;;;;;;10.39;100.00;98873.72;5034298;28;20057;-80
2021/11/29 07:34:25;;;;;;;184.07;166.35;;;;;;;10.16;100.00;98887.22;5034157;28;20057;-79
2021/11/29 07:36:51;;;;;;;221.30;201.57;;;;;;;10.18;100.00;98899.19;5034053;28;20497;-81
2021/11/29 07:39:18;;;;;;;265.75;241.75;;;;;;;10.07;100.00;98905.41;5033981;28;20123;-79
2021/11/29 07:41:45;;;;;;;234.50;213.05;;;;;;;9.93;100.00;98914.81;5033827;28;20053;-79
2021/11/29 07:44:12;;;;;;;240.18;217.75;;;;;;;9.99;100.00;98929.75;5034109;28;20049;-79
2021/11/29 07:46:40;;;;;;;219.02;197.80;;;;;;;9.85;100.00;98951.28;5033697;28;20119;-78
2021/11/29 07:49:07;;;;;;;250.10;226.27;;;;;;;10.08;100.00;98968.84;5034037;28;20126;-79
2021/11/29 07:51:33;;;;;;;261.08;233.98;;;;;;;9.90;100.00;98968.34;5034399;28;20064;-78
2021/11/29 07:54:00;;;;;;;270.98;243.90;;;;;;;10.00;100.00;98963.16;5033850;28;20050;-78
2021/11/29 07:56:27;;;;;;;279.20;251.60;;;;;;;9.96;100.00;98968.16;5033939;28;20122;-80
2021/11/29 07:58:54;;;;;;;276.15;248.93;;;;;;;10.03;100.00;98957.38;5033761;28;20397;-79
2021/11/29 08:01:20;;;;;;;312.73;273.15;;;;;;;10.05;100.00;98957.94;5033442;28;20107;-82
2021/11/29 08:03:49;;;;;;;351.52;301.42;;;;;;;10.02;100.00;98961.88;5033669;28;20056;-78
2021/11/29 08:06:15;;;;;;;404.75;328.75;;;;;;;9.99;100.00;98967.66;5033338;28;20114;-79
2021/11/29 08:08:43;;;;;;;381.30;326.15;;;;;;;10.05;100.00;98965.91;5033143;28;20452;-79
2021/11/29 08:11:10;;;;;;;295.73;266.90;;;;;;;10.01;100.00;98968.19;5033418;28;20122;-78
2021/11/29 08:13:37;;;;;;;475.60;398.02;;;;;;;10.01;100.00;98970.06;5033406;28;20053;-78
2021/11/29 08:16:04;;;;;;;462.63;402.08;;;;;;;10.15;100.00;98962.56;5033254;28;20049;-79
2021/11/29 08:18:30;;;;;;;345.85;310.25;;;;;;;10.24;100.00;98940.66;5033535;28;20123;-79
2021/11/29 08:20:58;;;;;;;342.98;307.45;;;;;;;10.34;100.00;98936.56;5033309;28;20516;-79
2021/11/29 08:23:25;;;;;;;389.20;348.58;;;;;;;10.42;100.00;98936.13;5033540;28;20119;-81
2021/11/29 08:25:52;;;;;;;403.83;361.00;;;;;;;10.52;100.00;98934.38;5033190;28;20383;-78
2021/11/29 08:28:19;;;;;;;548.00;489.20;;;;;;;10.67;100.00;98954.97;5033469;28;20123;-78
2021/11/29 08:30:46;;;;;;;348.65;310.48;;;;;;;10.49;100.00;98968.59;5033445;28;20473;-78
2021/11/29 08:33:13;;;;;;;411.80;351.45;;;;;;;10.67;100.00;98970.13;5033153;28;20481;-79
2021/11/29 08:35:40;;;;;;;317.52;284.73;;;;;;;10.71;100.00;98961.41;5033144;28;20050;-78
2021/11/29 08:38:08;;;;;;;296.17;264.25;;;;;;;10.87;100.00;98966.88;5033419;28;20136;-78
2021/11/29 08:40:36;;;;;;;297.60;261.48;;;;;;;10.85;100.00;98959.16;5033370;28;20191;-78
2021/11/29 08:43:06;;;;;;;437.38;386.40;;;;;;;10.85;100.00;98961.03;5033344;28;20143;-78
2021/11/29 08:45:33;;;;;;;386.15;345.40;;;;;;;10.89;100.00;98970.06;5033299;28;20452;-78
2021/11/29 08:48:01;;;;;;;317.05;283.70;;;;;;;10.88;100.00;98979.91;5033042;28;20089;-77
2021/11/29 08:50:29;;;;;;;341.02;306.73;;;;;;;10.83;100.00;98958.59;5033040;28;20045;-78
2021/11/29 08:52:55;;;;;;;337.33;301.80;;;;;;;11.29;100.00;98961.72;5033093;28;20421;-77
2021/11/29 08:55:23;;;;;;;344.73;307.60;;;;;;;11.24;100.00;98975.75;5032974;28;20547;-78
2021/11/29 08:57:50;;;;;;;309.02;276.00;;;;;;;11.28;100.00;98993.84;5033217;28;20127;-77
2021/11/29 09:00:19;;;;;;;294.13;263.58;;;;;;;11.27;100.00;99006.34;5032902;28;20477;-78
2021/11/29 09:02:47;;;;;;;347.33;311.30;;;;;;;11.50;100.00;99013.19;5032629;28;20053;-78
2021/11/29 09:05:17;;;;;;;332.52;297.50;;;;;;;11.67;100.00;99016.50;5032952;28;20399;-78
2021/11/29 09:07:44;;;;;;;352.70;308.17;;;;;;;11.35;100.00;98999.75;5033197;28;20053;-78
2021/11/29 09:10:12;;;;;;;333.30;294.63;;;;;;;12.38;100.00;98986.13;5033047;28;20456;-79
2021/11/29 09:12:41;;;;;;;323.42;287.63;;;;;;;12.91;100.00;98976.16;5032968;28;20049;-78
2021/11/29 09:15:11;;;;;;;371.60;333.73;;;;;;;12.28;100.00;98935.47;5032812;28;20045;-77
2021/11/29 09:17:38;;;;;;;315.80;285.00;;;;;;;14.30;100.00;98926.19;5033087;28;20049;-78
2021/11/29 09:20:06;;;;;;;259.10;238.70;;;;;;;13.86;100.00;98937.53;5033350;28;20049;-78
2021/11/29 09:22:33;;;;;;;248.02;229.23;;;;;;;13.40;100.00;98943.72;5036671;28;20122;-78
2021/11/29 09:25:00;;;;;;;185.40;170.32;;;;;;;13.10;100.00;98965.00;5036332;28;20069;-78
2021/11/29 09:27:27;;;;;;;174.30;159.02;;;;;;;12.57;100.00;99021.88;5036482;28;20049;-78
2021/11/29 09:29:55;;;;;;;161.57;147.63;;;;;;;12.21;100.00;99033.41;5036263;28;20481;-77
2021/11/29 09:32:22;;;;;;;181.20;165.27;;;;;;;11.75;100.00;98998.50;5036221;28;20119;-78
2021/11/29 09:34:49;;;;;;;184.75;168.55;;;;;;;11.87;100.00;98983.97;5036515;28;20456;-77
2021/11/29 09:37:16;;;;;;;282.30;257.50;;;;;;;11.73;100.00;98996.06;5036690;28;20041;-78
2021/11/29 09:39:43;;;;;;;239.63;218.25;;;;;;;11.32;100.00;98994.97;5036592;28;20137;-78
2021/11/29 09:42:10;;;;;;;262.77;239.57;;;;;;;11.57;100.00;98999.69;5036322;28;20053;-78
2021/11/29 09:44:37;;;;;;;267.00;242.50;;;;;;;11.54;100.00;99014.28;5036043;28;20531;-77
2021/11/29 09:47:05;;;;;;;216.50;197.40;;;;;;;11.25;100.00;99003.13;5035921;28;20460;-77
2021/11/29 09:49:41;;;;;;;240.50;217.52;;;;;;;11.11;100.00;99015.22;5035852;28;20486;-78
2021/11/29 09:52:08;;;;;;;284.13;260.05;;;;;;;11.09;100.00;99019.97;5036178;28;20049;-77
2021/11/29 09:54:35;;;;;;;280.52;257.15;;;;;;;10.76;100.00;99011.13;5035849;28;20466;-80
2021/11/29 09:57:02;;;;;;;187.75;171.60;;;;;;;10.37;100.00;99002.41;5035823;28;20115;-79
2021/11/29 09:59:28;;;;;;;197.65;180.57;;;;;;;10.46;100.00;99011.53;5035849;28;20111;-79
2021/11/29 10:01:56;;;;;;;161.05;145.38;;;;;;;10.66;100.00;99016.31;5035575;28;20108;-80
2021/11/29 10:04:25;;;;;;;159.10;144.75;;;;;;;10.65;100.00;99018.19;5036101;28;20045;-79
2021/11/29 10:06:56;;;;;;;140.77;128.50;;;;;;;10.63;100.00;99017.59;5035494;28;20053;-81
2021/11/29 10:09:35;;;;;;;136.73;123.90;;;;;;;10.60;100.00;99006.69;5035554;28;20049;-80
2021/11/29 10:12:26;;;;;;;226.77;206.85;;;;;;;10.80;100.00;99016.72;5035792;28;20064;-79
2021/11/29 10:15:11;;;;;;;201.05;184.20;;;;;;;10.52;100.00;99014.00;5035929;28;20107;-77
2021/11/29 10:17:38;;;;;;;203.00;184.93;;;;;;;10.26;100.00;99012.06;5035829;28;20053;-78
2021/11/29 10:20:08;;;;;;;185.57;168.88;;;;;;;10.38;100.00;99015.44;5035677;28;20131;-80
2021/11/29 10:22:34;;;;;;;190.05;174.25;;;;;;;10.32;100.00;99014.56;5035302;28;20049;-78
2021/11/29 10:25:14;;;;;;;193.68;176.48;;;;;;;10.60;100.00;99015.44;5035256;28;20056;-79
2021/11/29 10:27:42;;;;;;;210.73;194.32;;;;;;;10.44;100.00;99041.00;5035410;28;20050;-79
2021/11/29 10:30:10;;;;;;;202.82;186.02;;;;;;;10.36;100.00;99046.72;5035478;28;20057;-80
2021/11/29 10:32:40;;;;;;;230.20;211.65;;;;;;;10.38;100.00;99043.81;5035400;28;20464;-79
2021/11/29 10:35:09;;;;;;;233.95;214.32;;;;;;;10.42;100.00;99051.06;5035067;28;20493;-80
2021/11/29 10:37:38;;;;;;;223.55;205.68;;;;;;;10.32;100.00;99048.28;5035312;28;20115;-79
2021/11/29 10:40:07;;;;;;;207.77;189.70;;;;;;;10.28;100.00;99045.28;5034964;28;20114;-80
2021/11/29 10:42:34;;;;;;;158.48;144.65;;;;;;;10.49;100.00;99034.94;5035251;28;20456;-78
2021/11/29 10:45:01;;;;;;;193.82;176.50;;;;;;;10.45;100.00;99039.16;5034929;28;20473;-80
2021/11/29 10:47:32;;;;;;;192.27;175.77;;;;;;;10.39;100.00;99046.22;5034811;28;20444;-80
2021/11/29 10:50:00;;;;;;;152.05;138.20;;;;;;;10.46;100.00;99049.50;5035351;28;20060;-79
2021/11/29 10:52:33;;;;;;;164.50;150.77;;;;;;;10.31;100.00;99060.72;5035003;28;20138;-79
2021/11/29 10:55:01;;;;;;;148.52;134.68;;;;;;;10.21;100.00;99065.06;5035009;28;20077;-78
2021/11/29 10:57:29;;;;;;;178.50;161.10;;;;;;;10.21;100.00;99073.00;5035033;28;20041;-79
2021/11/29 11:03:17;;;;;;;210.73;191.90;;;;;;;10.04;100.00;99081.78;5023671;28;20110;-78
2021/11/29 11:05:58;;;;;;;169.18;152.93;;;;;;;9.90;100.00;99071.75;5034756;28;20057;-79
2021/11/29 11:08:34;;;;;;;156.68;140.98;;;;;;;10.00;100.00;99088.63;5034493;28;20397;-79
2021/11/29 11:11:02;;;;;;;146.30;133.13;;;;;;;10.00;100.00;99085.16;5034437;28;20057;-79